Time;durP1;ratioP1;P1;durP2;ratioP2;P2;SDS_P1;SDS_P2;PMS_P1;PMS_P2;Temp;Humidity;BMP_temperature;BMP_pressure;BME280_temperature;BME280_humidity;BME280_pressure;Samples;Min_cycle;Max_cycle;Signal;HPM_P1;HPM_P2
2022/12/28 00:06:50;;;;;;;1999.90;999.90;;;6.60;99.90;;;;;;6710567;88;20700;-73
2022/12/28 00:16:50;;;;;;;1999.90;999.90;;;6.70;99.90;;;;;;6712718;88;20174;-73
2022/12/28 00:26:52;;;;;;;1999.90;999.90;;;6.80;99.90;;;;;;6708764;88;20295;-72
2022/12/28 00:36:52;;;;;;;1999.90;999.90;;;6.90;99.90;;;;;;6705076;88;20216;-73
2022/12/28 00:46:53;;;;;;;1999.90;999.90;;;7.00;99.90;;;;;;6710633;88;20798;-73
2022/12/28 00:56:53;;;;;;;1999.90;999.90;;;7.20;99.90;;;;;;6706606;88;20529;-74
2022/12/28 01:06:54;;;;;;;1999.90;999.90;;;7.20;99.90;;;;;;6706338;88;20202;-74
2022/12/28 01:16:54;;;;;;;1999.90;999.90;;;7.30;99.90;;;;;;6706673;88;20223;-73
2022/12/28 01:26:55;;;;;;;1999.90;999.90;;;7.20;99.90;;;;;;6706739;88;20296;-74
2022/12/28 01:36:55;;;;;;;1999.90;999.90;;;7.30;99.90;;;;;;6704960;88;20685;-74
2022/12/28 01:47:03;;;;;;;1999.90;999.90;;;7.40;99.90;;;;;;6704334;88;20685;-73
2022/12/28 01:57:03;;;;;;;1999.90;999.90;;;7.50;99.90;;;;;;6705878;88;20190;-73
2022/12/28 02:07:04;;;;;;;1999.90;999.90;;;7.50;99.90;;;;;;6709026;88;20269;-74
2022/12/28 02:17:08;;;;;;;1999.90;999.90;;;7.50;99.90;;;;;;6706628;88;20186;-74
2022/12/28 02:27:15;;;;;;;1999.90;999.90;;;7.50;99.90;;;;;;6709855;88;20239;-74
2022/12/28 02:37:20;;;;;;;1999.90;999.90;;;7.50;99.90;;;;;;6706169;88;20194;-74
2022/12/28 02:58:06;;;;;;;1999.90;999.90;;;7.70;99.90;;;;;;6707706;88;20229;-74
2022/12/28 03:08:18;;;;;;;1999.90;999.90;;;7.80;99.90;;;;;;6703619;88;20322;-74
2022/12/28 03:39:34;;;;;;;1999.90;999.90;;;7.90;99.90;;;;;;6703447;88;20338;-74
2022/12/28 03:49:35;;;;;;;1999.90;999.90;;;8.00;99.90;;;;;;6700078;88;20555;-74
2022/12/28 03:59:36;;;;;;;1999.90;999.90;;;8.00;99.90;;;;;;6714142;88;20199;-74
2022/12/28 04:09:36;;;;;;;1999.90;999.90;;;8.00;99.90;;;;;;6705765;88;20193;-74
2022/12/28 04:19:37;;;;;;;1999.90;999.90;;;8.00;99.90;;;;;;6707465;88;20276;-75
2022/12/28 04:29:38;;;;;;;1999.90;999.90;;;8.10;99.90;;;;;;6705536;88;20285;-74
2022/12/28 04:39:38;;;;;;;1999.90;999.90;;;8.10;99.90;;;;;;6708829;88;20212;-74
2022/12/28 04:49:39;;;;;;;1999.90;999.90;;;8.10;99.90;;;;;;6708713;88;20226;-74
2022/12/28 04:59:39;;;;;;;1999.90;999.90;;;8.30;99.90;;;;;;6707263;88;20248;-74
2022/12/28 05:09:40;;;;;;;1999.90;999.90;;;8.40;99.90;;;;;;6706923;88;20181;-75
2022/12/28 05:19:40;;;;;;;1999.90;999.90;;;8.50;99.90;;;;;;6703611;88;20190;-74
2022/12/28 05:29:41;;;;;;;1999.90;999.90;;;8.60;99.90;;;;;;6708621;88;20321;-74
2022/12/28 05:49:46;;;;;;;1999.90;999.90;;;8.60;99.90;;;;;;6724146;88;20368;-77
2022/12/28 05:59:46;;;;;;;1999.90;999.90;;;8.70;99.90;;;;;;6726188;88;20255;-79
2022/12/28 06:09:47;;;;;;;1999.90;999.90;;;8.80;99.90;;;;;;6722707;88;20225;-78
2022/12/28 06:19:47;;;;;;;1999.90;999.90;;;8.80;99.90;;;;;;6723767;88;20205;-76
2022/12/28 06:29:48;;;;;;;1999.90;999.90;;;9.00;99.90;;;;;;6723635;88;20203;-79
2022/12/28 06:39:48;;;;;;;1999.90;999.90;;;9.00;99.90;;;;;;6722356;88;20192;-76
2022/12/28 06:49:49;;;;;;;1999.90;999.90;;;9.10;99.90;;;;;;6723011;88;20210;-79
2022/12/28 06:59:49;;;;;;;1999.90;999.90;;;9.20;99.90;;;;;;6723516;88;20218;-77
2022/12/28 07:09:50;;;;;;;1999.90;999.90;;;9.20;99.90;;;;;;6721134;88;20607;-78
2022/12/28 07:19:50;;;;;;;1999.90;999.90;;;9.30;99.90;;;;;;6721239;88;20278;-77
2022/12/28 07:29:51;;;;;;;1999.90;999.90;;;9.40;99.90;;;;;;6721603;88;20192;-77
2022/12/28 07:39:51;;;;;;;1999.90;999.90;;;9.40;99.90;;;;;;6721785;88;20196;-77
2022/12/28 07:49:52;;;;;;;1999.90;999.90;;;9.40;99.90;;;;;;6726000;88;20275;-77
2022/12/28 07:59:52;;;;;;;1999.90;999.90;;;9.50;99.90;;;;;;6727433;88;20360;-77
2022/12/28 08:09:53;;;;;;;1999.90;999.90;;;9.50;99.90;;;;;;6723694;88;20897;-77
2022/12/28 08:19:54;;;;;;;1999.90;999.90;;;9.60;99.90;;;;;;6724067;88;20758;-78
2022/12/28 08:29:54;;;;;;;1999.90;999.90;;;9.70;99.90;;;;;;6723261;88;20235;-77
2022/12/28 08:39:55;;;;;;;1999.90;999.90;;;9.70;99.90;;;;;;6723727;88;20240;-77
2022/12/28 08:49:55;;;;;;;1999.90;999.90;;;9.80;99.90;;;;;;6722785;88;20275;-77
2022/12/28 08:59:56;;;;;;;1999.90;999.90;;;9.80;99.90;;;;;;6723142;88;20193;-75
2022/12/28 09:09:56;;;;;;;1999.90;999.90;;;9.90;99.90;;;;;;6720689;88;20203;-76
2022/12/28 09:19:57;;;;;;;1999.90;999.90;;;9.90;99.90;;;;;;6719187;88;20206;-75
2022/12/28 09:29:57;;;;;;;1999.90;999.90;;;10.00;99.90;;;;;;6714290;88;20196;-76
2022/12/28 09:39:58;;;;;;;1999.90;999.90;;;10.10;99.90;;;;;;6707007;88;20202;-75
2022/12/28 09:49:58;;;;;;;1999.90;999.90;;;10.10;99.90;;;;;;6711205;88;20773;-76
2022/12/28 09:59:59;;;;;;;1999.90;999.90;;;10.20;99.90;;;;;;6711460;88;20206;-76
2022/12/28 10:10:00;;;;;;;1999.90;999.90;;;10.40;99.90;;;;;;6709514;88;20207;-76
2022/12/28 10:20:01;;;;;;;1999.90;999.90;;;10.50;99.90;;;;;;6706047;88;20197;-76
2022/12/28 10:30:05;;;;;;;1999.90;999.90;;;10.40;99.90;;;;;;6719191;88;20749;-77
2022/12/28 10:40:27;;;;;;;1999.90;999.90;;;10.60;99.90;;;;;;6718084;88;20203;-77
2022/12/28 10:50:48;;;;;;;1999.90;999.90;;;10.60;99.90;;;;;;6712212;88;20194;-76
2022/12/28 11:00:57;;;;;;;1999.90;999.90;;;10.80;99.90;;;;;;6710419;88;20215;-76
2022/12/28 11:10:57;;;;;;;1999.90;999.90;;;10.80;99.90;;;;;;6706887;88;20238;-78
2022/12/28 11:20:58;;;;;;;1999.90;999.90;;;10.80;99.90;;;;;;6717437;88;20186;-78
2022/12/28 11:30:59;;;;;;;1999.90;999.90;;;10.80;99.90;;;;;;6710214;88;20217;-76
2022/12/28 11:41:00;;;;;;;1999.90;999.90;;;10.70;99.90;;;;;;6714884;77;20204;-73
2022/12/28 11:51:19;;;;;;;1999.90;999.90;;;10.70;99.90;;;;;;6714254;88;20251;-74
2022/12/28 12:01:26;;;;;;;1999.90;999.90;;;10.60;99.90;;;;;;6722035;88;20193;-74
2022/12/28 12:11:32;;;;;;;1999.90;999.90;;;10.60;99.90;;;;;;6713090;88;20185;-74
2022/12/28 12:21:40;;;;;;;1999.90;999.90;;;10.70;99.90;;;;;;6712427;88;20197;-74
2022/12/28 12:31:49;;;;;;;1999.90;999.90;;;10.80;99.90;;;;;;6714916;88;20665;-74
2022/12/28 12:42:06;;;;;;;1999.90;999.90;;;10.80;99.90;;;;;;6716036;88;20181;-74
2022/12/28 12:52:52;;;;;;;1999.90;999.90;;;10.70;99.90;;;;;;6716644;88;20670;-74
2022/12/28 13:03:27;;;;;;;1999.90;999.90;;;10.80;99.90;;;;;;6685041;88;20199;-77
2022/12/28 13:13:32;;;;;;;1999.90;999.90;;;10.80;99.90;;;;;;6697638;88;20557;-74
2022/12/28 13:23:43;;;;;;;1999.90;999.90;;;10.80;99.90;;;;;;6697932;88;20707;-73
2022/12/28 13:33:57;;;;;;;1999.90;999.90;;;10.80;99.90;;;;;;6697365;88;20243;-73
2022/12/28 13:44:12;;;;;;;1999.90;999.90;;;10.60;99.90;;;;;;6697609;88;20205;-75
2022/12/28 13:54:13;;;;;;;1999.90;999.90;;;10.60;99.90;;;;;;6697832;88;20212;-73
2022/12/28 14:04:19;;;;;;;1999.90;999.90;;;10.60;99.90;;;;;;6697935;88;20190;-73
2022/12/28 14:14:19;;;;;;;1999.90;999.90;;;10.60;99.90;;;;;;6698235;88;20183;-74
2022/12/28 14:24:20;;;;;;;1999.90;999.90;;;10.70;99.90;;;;;;6697732;88;20690;-73
2022/12/28 14:34:28;;;;;;;1999.90;999.90;;;10.70;99.90;;;;;;6697201;88;20545;-74
2022/12/28 14:44:36;;;;;;;1999.90;999.90;;;10.70;99.90;;;;;;6697101;88;20518;-73
2022/12/28 14:54:48;;;;;;;1999.90;999.90;;;10.70;99.90;;;;;;6696461;88;20259;-73
2022/12/28 15:04:49;;;;;;;1999.90;999.90;;;10.60;99.90;;;;;;6697042;88;20317;-74
2022/12/28 15:14:50;;;;;;;1999.90;999.90;;;10.60;99.90;;;;;;6715779;88;20646;-77
2022/12/28 15:24:50;;;;;;;1999.90;999.90;;;10.60;99.90;;;;;;6721303;88;20206;-73
2022/12/28 15:34:51;;;;;;;1999.90;999.90;;;10.60;99.90;;;;;;6724238;88;20648;-74
2022/12/28 15:44:52;;;;;;;1999.90;999.90;;;10.60;99.90;;;;;;6718399;88;20257;-77
2022/12/28 15:54:53;;;;;;;1999.90;999.90;;;10.60;99.90;;;;;;6724815;88;20206;-72
2022/12/28 16:04:54;;;;;;;1999.90;999.90;;;10.60;99.90;;;;;;6723756;88;20733;-76
2022/12/28 16:14:55;;;;;;;1999.90;999.90;;;10.70;99.90;;;;;;6720864;88;20211;-77
2022/12/28 16:24:55;;;;;;;1999.90;999.90;;;10.60;99.90;;;;;;6720379;88;20182;-77
2022/12/28 16:34:56;;;;;;;1999.90;999.90;;;10.50;99.90;;;;;;6721593;88;20185;-77
2022/12/28 16:44:57;;;;;;;1999.90;999.90;;;10.60;99.90;;;;;;6720928;88;20252;-77
2022/12/28 16:54:57;;;;;;;1999.90;999.90;;;10.60;99.90;;;;;;6720600;88;20215;-76
2022/12/28 17:04:58;;;;;;;1999.90;999.90;;;10.40;99.90;;;;;;6719855;88;20711;-76
2022/12/28 17:14:58;;;;;;;1999.90;999.90;;;10.40;99.90;;;;;;6720683;88;20218;-77
2022/12/28 17:24:59;;;;;;;1999.90;999.90;;;10.40;99.90;;;;;;6720331;88;20193;-77
2022/12/28 17:34:59;;;;;;;1999.90;999.90;;;10.50;99.90;;;;;;6719122;88;20691;-77
2022/12/28 17:45:00;;;;;;;1999.90;999.90;;;10.60;99.90;;;;;;6712782;77;20673;-75
2022/12/28 17:55:02;;;;;;;1999.90;999.90;;;10.60;99.90;;;;;;6697820;88;20221;-74
2022/12/28 18:05:02;;;;;;;1999.90;999.90;;;10.70;99.90;;;;;;6697459;88;20207;-75
2022/12/28 18:15:05;;;;;;;1999.90;999.90;;;10.80;99.90;;;;;;6696951;88;20320;-75
2022/12/28 18:25:06;;;;;;;1999.90;999.90;;;10.70;99.90;;;;;;6696715;88;20195;-75
2022/12/28 18:35:07;;;;;;;1999.90;999.90;;;10.70;99.90;;;;;;6697212;88;20178;-75
2022/12/28 18:45:08;;;;;;;1999.90;999.90;;;10.80;99.90;;;;;;6696253;88;20569;-75
2022/12/28 18:55:08;;;;;;;1999.90;999.90;;;10.80;99.90;;;;;;6696630;88;20179;-74
2022/12/28 19:05:09;;;;;;;1999.90;999.90;;;10.70;99.90;;;;;;6697879;88;20212;-74
2022/12/28 19:15:10;;;;;;;1999.90;999.90;;;10.70;99.90;;;;;;6696007;88;20525;-74
2022/12/28 19:25:10;;;;;;;1999.90;999.90;;;10.70;99.90;;;;;;6697885;88;20222;-73
2022/12/28 19:35:11;;;;;;;1999.90;999.90;;;10.70;99.90;;;;;;6699253;88;20218;-73
2022/12/28 19:45:11;;;;;;;1999.90;999.90;;;10.70;99.90;;;;;;6699420;88;20218;-75
2022/12/28 19:55:12;;;;;;;1999.90;999.90;;;10.90;99.90;;;;;;6698849;88;20227;-75
2022/12/28 20:05:13;;;;;;;1999.90;999.90;;;11.00;99.90;;;;;;6706555;88;20212;-75
2022/12/28 20:15:13;;;;;;;1999.90;999.90;;;10.90;99.90;;;;;;6699779;88;20206;-75
2022/12/28 20:25:14;;;;;;;1999.90;999.90;;;11.00;99.90;;;;;;6692784;88;20199;-74
2022/12/28 20:35:14;;;;;;;1999.90;999.90;;;11.00;99.90;;;;;;6699017;88;20275;-75
2022/12/28 20:45:15;;;;;;;1999.90;999.90;;;11.00;99.90;;;;;;6698708;88;20239;-75
2022/12/28 20:55:15;;;;;;;1999.90;999.90;;;10.90;99.90;;;;;;6699808;88;20201;-75
2022/12/28 21:05:16;;;;;;;1999.90;999.90;;;10.90;99.90;;;;;;6698491;88;20189;-75
2022/12/28 21:15:16;;;;;;;1999.90;999.90;;;11.00;99.90;;;;;;6694877;88;20235;-74
2022/12/28 21:25:17;;;;;;;1999.90;999.90;;;11.10;99.90;;;;;;6696378;88;20261;-74
2022/12/28 21:35:17;;;;;;;1999.90;999.90;;;11.10;99.90;;;;;;6686986;88;20211;-74
2022/12/28 21:45:18;;;;;;;1999.90;999.90;;;11.20;99.90;;;;;;6686506;88;20227;-73
2022/12/28 22:15:57;;;;;;;1999.90;999.90;;;11.30;99.90;;;;;;6701146;88;20212;-74
2022/12/28 22:25:57;;;;;;;1999.90;999.90;;;11.40;99.90;;;;;;6703659;88;20317;-74
2022/12/28 22:36:10;;;;;;;1999.90;999.90;;;11.50;99.90;;;;;;6702711;88;20403;-74
2022/12/28 22:46:11;;;;;;;1999.90;999.90;;;11.50;99.90;;;;;;6706025;88;20666;-73
2022/12/28 22:56:18;;;;;;;1999.90;999.90;;;11.50;99.90;;;;;;6701421;88;20278;-74
2022/12/28 23:06:19;;;;;;;1999.90;999.90;;;11.60;99.90;;;;;;6698260;88;20186;-74
2022/12/28 23:16:20;;;;;;;1999.90;999.90;;;11.60;99.90;;;;;;6706646;88;20269;-74
2022/12/28 23:36:41;;;;;;;1999.90;999.90;;;11.70;99.90;;;;;;6700479;88;20193;-73
2022/12/28 23:46:41;;;;;;;1999.90;999.90;;;11.70;99.90;;;;;;6702841;88;20238;-75
2022/12/28 23:56:42;;;;;;;1999.90;999.90;;;11.80;99.90;;;;;;6696467;88;20254;-75
